KAQW

Harriman-And-West Airport

North Adams, Massachusetts, USA
METAR KAQW 131052Z AUTO 08009KT 10SM BKN120 M07/M16 A3038 RMK AO2 SLP299 T10671161
Observed Flight Rules
Dec-13 @ 10:52 UTC (42 minutes ago) Visual Flight Rules
Wind Visibility Clouds
80° at 9 knots 10 miles
  • Broken at 12,000' AGL
Temperatures Readings
Current -7°C / 19°F
Dewpoint -16°C / 3°F
Humidity 49%
Altimeter 30.38" Hg
Pressure 1029.9 hPa
Elevation 199
METAR KAQW 131052Z AUTO 08009KT 10SM BKN120 M07/M16 A3038 RMK AO2 SLP299 T10671161
Observed Flight Rules
Dec-13 @ 10:52 UTC
(42 minutes ago)
VFR
Wind Visibility
80° at 9 knots 10 miles
Clouds
  • Broken at 12,000' AGL
Temperature Dewpoint
-7°C / 19°F -16°C / 3°F
Humidity Altimeter Pressure
49% 30.38" Hg 1029.9 hPa